Time;durP1;ratioP1;P1;durP2;ratioP2;P2;SDS_P1;SDS_P2;PMS_P1;PMS_P2;Temp;Humidity;BMP_temperature;BMP_pressure;BME280_temperature;BME280_humidity;BME280_pressure;Samples;Min_cycle;Max_cycle;Signal;HPM_P1;HPM_P2
2021/06/26 00:01:57;;;;;;;7.53;6.83;;;;;;;;;;5135074;27;20804;-89
2021/06/26 00:04:24;;;;;;;8.70;7.80;;;;;;;;;;5135131;27;20797;-90
2021/06/26 00:06:51;;;;;;;7.47;6.77;;;;;;;;;;5134917;27;20500;-90
2021/06/26 00:09:18;;;;;;;9.93;7.40;;;14.60;99.90;;;;;;5134761;27;20475;-91
2021/06/26 00:11:48;;;;;;;10.90;7.00;;;14.50;99.90;;;;;;5133908;27;20451;-90
2021/06/26 00:14:16;;;;;;;7.73;7.03;;;;;;;;;;5135063;27;20439;-89
2021/06/26 00:16:42;;;;;;;7.73;7.00;;;14.20;99.90;;;;;;5129691;27;20478;-88
2021/06/26 00:19:09;;;;;;;8.40;7.20;;;14.60;99.90;;;;;;5134455;27;20443;-90
2021/06/26 00:21:37;;;;;;;8.33;6.70;;;;;;;;;;5134975;27;20453;-90
2021/06/26 00:24:04;;;;;;;9.03;7.07;;;14.90;99.90;;;;;;5134981;27;20443;-90
2021/06/26 00:26:31;;;;;;;9.30;7.00;;;;;;;;;;5133765;27;20453;-90
2021/06/26 00:28:59;;;;;;;8.10;7.17;;;14.60;99.90;;;;;;5134816;27;20438;-90
2021/06/26 00:31:27;;;;;;;7.60;6.90;;;;;;;;;;5134376;27;20494;-89
2021/06/26 00:33:53;;;;;;;9.87;7.50;;;14.60;99.90;;;;;;5134676;27;20456;-90
2021/06/26 00:36:20;;;;;;;7.93;7.20;;;;;;;;;;5134666;27;20806;-89
2021/06/26 00:38:47;;;;;;;9.33;8.20;;;14.30;99.90;;;;;;5134302;27;20443;-91
2021/06/26 00:41:14;;;;;;;10.13;7.10;;;13.40;99.90;;;;;;5133259;27;20439;-88
2021/06/26 00:43:41;;;;;;;7.40;6.70;;;;;;;;;;5134458;27;20795;-91
2021/06/26 00:46:10;;;;;;;8.60;7.80;;;14.10;99.90;;;;;;5134108;27;20447;-90
2021/06/26 00:48:36;;;;;;;8.43;7.63;;;14.60;99.90;;;;;;5134510;27;20451;-90
2021/06/26 00:51:04;;;;;;;7.47;6.87;;;;;;;;;;5134356;27;20487;-90
2021/06/26 00:53:31;;;;;;;10.53;8.43;;;;;;;;;;5134364;27;20443;-89
2021/06/26 00:55:58;;;;;;;8.47;7.70;;;;;;;;;;5134490;27;20459;-90
2021/06/26 00:58:25;;;;;;;7.00;6.13;;;14.40;99.90;;;;;;5133499;27;20454;-89
2021/06/26 01:00:53;;;;;;;9.50;7.30;;;;;;;;;;5134432;27;20447;-90
2021/06/26 01:03:21;;;;;;;7.70;6.90;;;14.50;99.90;;;;;;5134257;27;20451;-89
2021/06/26 01:05:49;;;;;;;10.10;7.47;;;14.30;99.90;;;;;;5134359;27;20450;-89
2021/06/26 01:08:16;;;;;;;7.77;7.07;;;;;;;;;;5131527;27;20474;-90
2021/06/26 01:10:43;;;;;;;9.37;7.03;;;14.30;99.90;;;;;;5134321;28;20499;-88
2021/06/26 01:13:11;;;;;;;10.03;7.20;;;14.40;99.90;;;;;;5130388;28;20929;-89
2021/06/26 01:15:38;;;;;;;8.23;7.20;;;;;;;;;;5134280;28;20970;-89
2021/06/26 01:18:05;;;;;;;8.67;7.87;;;14.40;99.90;;;;;;5134076;28;20814;-89
2021/06/26 01:20:33;;;;;;;11.50;7.87;;;14.30;99.90;;;;;;5134077;28;20454;-89
2021/06/26 01:23:03;;;;;;;8.67;7.60;;;14.30;99.90;;;;;;5134210;28;20450;-90
2021/06/26 01:25:31;;;;;;;10.53;7.60;;;14.40;99.90;;;;;;5134021;28;20451;-89
2021/06/26 01:27:59;;;;;;;10.10;7.40;;;14.40;99.90;;;;;;5132959;28;20439;-90
2021/06/26 01:30:28;;;;;;;8.70;7.00;;;14.40;99.90;;;;;;5136681;27;20845;-91
2021/06/26 01:32:55;;;;;;;8.57;7.67;;;;;;;;;;5138088;27;20453;-89
2021/06/26 01:35:22;;;;;;;11.20;8.00;;;;;;;;;;5138185;27;20443;-90
2021/06/26 01:37:49;;;;;;;8.23;7.43;;;14.50;99.90;;;;;;5138098;27;20447;-90
2021/06/26 01:40:19;;;;;;;8.67;7.40;;;14.40;99.90;;;;;;5138239;27;20443;-90
2021/06/26 01:42:47;;;;;;;8.93;8.03;;;14.50;99.90;;;;;;5137142;27;20450;-89
2021/06/26 01:45:15;;;;;;;9.17;8.27;;;14.30;99.90;;;;;;5138239;27;20438;-90
2021/06/26 01:47:47;;;;;;;10.20;9.17;;;14.20;99.90;;;;;;5137744;27;20784;-90
2021/06/26 01:50:17;;;;;;;8.77;7.87;;;14.40;99.90;;;;;;5137987;27;20478;-89
2021/06/26 01:52:44;;;;;;;9.00;7.80;;;14.40;99.90;;;;;;5137772;27;20462;-89
2021/06/26 01:55:12;;;;;;;8.97;8.17;;;14.50;99.90;;;;;;5137915;27;20803;-90
2021/06/26 01:57:41;;;;;;;8.90;7.87;;;14.30;99.90;;;;;;5136486;27;20941;-92
2021/06/26 02:00:10;;;;;;;9.67;8.40;;;14.20;99.90;;;;;;5137660;27;20454;-89
2021/06/26 02:02:37;;;;;;;9.67;8.17;;;14.40;99.90;;;;;;5137427;27;20447;-89
2021/06/26 02:05:04;;;;;;;10.77;9.00;;;;;;;;;;5137538;27;20454;-91
2021/06/26 02:07:31;;;;;;;10.87;8.30;;;14.40;99.90;;;;;;5137479;27;20474;-90
2021/06/26 02:09:58;;;;;;;12.50;9.10;;;14.40;99.90;;;;;;5137348;27;20817;-89
2021/06/26 02:12:25;;;;;;;9.73;8.43;;;14.40;99.90;;;;;;5136376;27;20443;-89
2021/06/26 02:14:53;;;;;;;8.90;8.10;;;14.20;99.90;;;;;;5137567;27;20434;-89
2021/06/26 02:17:21;;;;;;;10.00;9.03;;;14.50;99.90;;;;;;5137570;27;20450;-89
2021/06/26 02:19:47;;;;;;;11.70;8.70;;;14.40;99.90;;;;;;5137285;27;20443;-90
2021/06/26 02:22:14;;;;;;;9.77;8.30;;;14.50;99.90;;;;;;5137452;27;20447;-90
2021/06/26 02:24:41;;;;;;;10.17;9.27;;;;;;;;;;5137334;27;20446;-89
2021/06/26 02:27:09;;;;;;;10.60;9.10;;;14.40;99.90;;;;;;5136134;27;20442;-92
2021/06/26 02:29:36;;;;;;;9.57;7.97;;;14.20;99.90;;;;;;5137168;27;20451;-90
2021/06/26 02:32:05;;;;;;;9.07;7.90;;;14.10;99.90;;;;;;5131750;27;20478;-89
2021/06/26 02:34:52;;;;;;;8.47;7.70;;;14.40;99.90;;;;;;5136345;27;20450;-88
2021/06/26 02:37:19;;;;;;;9.20;8.40;;;;;;;;;;5134870;27;20530;-89
2021/06/26 02:39:51;;;;;;;9.83;8.87;;;14.50;99.90;;;;;;5133557;27;20488;-89
2021/06/26 02:42:18;;;;;;;8.93;8.13;;;;;;;;;;5132149;27;20446;-91
2021/06/26 02:44:49;;;;;;;8.27;7.47;;;;;;;;;;5133251;27;20439;-89
2021/06/26 02:47:18;;;;;;;10.93;9.57;;;14.60;99.90;;;;;;5136198;27;20431;-90
2021/06/26 02:49:47;;;;;;;9.23;8.37;;;;;;;;;;5135969;27;20450;-88
2021/06/26 02:52:16;;;;;;;9.23;8.30;;;;;;;;;;5135700;27;20511;-87
2021/06/26 02:54:46;;;;;;;10.23;9.23;;;;;;;;;;5135727;27;20435;-87
2021/06/26 02:57:13;;;;;;;11.03;8.83;;;;;;;;;;5134652;27;20845;-89
2021/06/26 02:59:48;;;;;;;9.03;7.60;;;14.40;99.90;;;;;;5136046;27;20451;-90
2021/06/26 03:02:18;;;;;;;9.53;8.47;;;;;;;;;;5134348;27;20439;-89
2021/06/26 03:04:49;;;;;;;8.33;7.53;;;14.40;99.90;;;;;;5135777;27;20815;-89
2021/06/26 03:07:16;;;;;;;9.77;8.53;;;;;;;;;;5135516;27;20450;-88
2021/06/26 03:09:43;;;;;;;12.53;8.73;;;;;;;;;;5135643;27;20526;-89
2021/06/26 03:12:13;;;;;;;8.80;7.90;;;14.20;99.90;;;;;;5134466;27;20493;-90
2021/06/26 03:14:42;;;;;;;9.70;8.70;;;14.20;99.90;;;;;;5135676;27;20447;-91
2021/06/26 03:17:13;;;;;;;9.80;8.53;;;;;;;;;;5133213;27;20431;-90
2021/06/26 03:19:42;;;;;;;10.73;8.70;;;14.10;99.90;;;;;;5134709;27;20823;-89
2021/06/26 03:22:11;;;;;;;10.03;8.53;;;14.10;99.90;;;;;;5132892;27;20446;-91
2021/06/26 03:24:38;;;;;;;12.03;8.90;;;;;;;;;;5135475;27;20934;-90
2021/06/26 03:27:05;;;;;;;12.37;9.10;;;13.80;99.90;;;;;;5134625;27;20442;-90
2021/06/26 03:29:32;;;;;;;11.27;8.60;;;13.90;99.90;;;;;;5136156;27;20975;-89
2021/06/26 03:31:59;;;;;;;9.13;8.20;;;;;;;;;;5136174;27;20539;-90
2021/06/26 03:34:26;;;;;;;12.17;8.70;;;;;;;;;;5135960;27;20450;-92
2021/06/26 03:36:53;;;;;;;10.07;9.03;;;13.80;99.90;;;;;;5136274;27;20469;-91
2021/06/26 03:39:23;;;;;;;9.33;8.33;;;13.70;99.90;;;;;;5137421;27;20473;-90
2021/06/26 03:41:50;;;;;;;9.10;7.57;;;;;;;;;;5136702;27;20439;-89
2021/06/26 03:44:17;;;;;;;10.00;8.60;;;;;;;;;;5137351;27;20438;-89
2021/06/26 03:46:44;;;;;;;10.43;9.33;;;;;;;;;;5142813;27;20499;-90
2021/06/26 03:49:11;;;;;;;10.20;9.20;;;13.40;99.90;;;;;;5151743;27;20419;-90
2021/06/26 03:51:39;;;;;;;10.50;9.40;;;;;;;;;;5160457;27;20521;-92
2021/06/26 03:54:06;;;;;;;9.70;8.80;;;13.70;99.90;;;;;;5157184;27;20446;-89
2021/06/26 03:56:34;;;;;;;15.10;10.00;;;13.30;99.90;;;;;;5152071;27;20446;-90
2021/06/26 03:59:02;;;;;;;10.77;9.67;;;13.40;99.90;;;;;;5150160;27;20511;-90
2021/06/26 04:01:29;;;;;;;11.93;9.90;;;13.80;99.90;;;;;;5139058;27;20543;-90
2021/06/26 04:03:56;;;;;;;14.93;9.60;;;13.70;99.90;;;;;;5136258;27;20799;-89
2021/06/26 04:06:23;;;;;;;13.53;10.13;;;;;;;;;;5136287;27;20454;-90
2021/06/26 04:08:50;;;;;;;11.17;9.43;;;;;;;;;;5136032;27;20977;-89
2021/06/26 04:11:17;;;;;;;10.60;9.50;;;;;;;;;;5135366;27;20483;-90
2021/06/26 04:13:45;;;;;;;11.43;9.60;;;13.90;99.90;;;;;;5136209;27;20801;-90
2021/06/26 04:16:13;;;;;;;12.10;9.90;;;;;;;;;;5136109;27;20439;-91
2021/06/26 04:18:40;;;;;;;12.73;10.20;;;;;;;;;;5136453;27;20473;-89
2021/06/26 04:21:07;;;;;;;12.00;9.53;;;;;;;;;;5136341;27;20442;-91
2021/06/26 04:23:34;;;;;;;11.47;10.30;;;;;;;;;;5135569;27;20447;-90
2021/06/26 04:26:01;;;;;;;11.40;10.27;;;;;;;;;;5135941;27;20449;-90
2021/06/26 04:28:29;;;;;;;10.50;9.50;;;;;;;;;;5134762;27;20453;-90
2021/06/26 04:30:57;;;;;;;11.97;10.40;;;14.30;99.90;;;;;;5135658;27;20961;-91
2021/06/26 04:33:25;;;;;;;12.43;10.53;;;;;;;;;;5130508;27;20473;-90
2021/06/26 04:35:52;;;;;;;11.13;10.03;;;14.50;99.90;;;;;;5135352;27;20791;-91
2021/06/26 04:38:22;;;;;;;12.53;11.23;;;;;;;;;;5135465;27;20454;-91
2021/06/26 04:40:49;;;;;;;10.43;9.30;;;14.70;99.90;;;;;;5135668;27;20446;-90
2021/06/26 04:43:16;;;;;;;14.70;11.00;;;;;;;;;;5131454;27;20797;-89
2021/06/26 04:45:46;;;;;;;10.90;9.80;;;14.60;99.90;;;;;;5132671;27;20443;-89
2021/06/26 04:48:17;;;;;;;12.20;9.27;;;14.60;99.90;;;;;;5135255;27;20446;-90
2021/06/26 04:50:44;;;;;;;14.27;11.00;;;15.00;99.90;;;;;;5135124;27;20442;-91
2021/06/26 04:53:11;;;;;;;17.63;10.37;;;;;;;;;;5134970;27;21029;-89
2021/06/26 04:55:38;;;;;;;11.57;10.27;;;;;;;;;;5133367;27;20462;-90
2021/06/26 04:58:05;;;;;;;13.27;11.80;;;;;;;;;;5133870;27;20439;-89
2021/06/26 05:00:32;;;;;;;14.60;13.10;;;;;;;;;;5134817;27;20450;-90
2021/06/26 05:02:59;;;;;;;14.80;11.67;;;15.40;99.90;;;;;;5134798;27;20446;-90
2021/06/26 05:05:27;;;;;;;13.77;12.37;;;15.00;99.90;;;;;;5134942;27;20439;-90
2021/06/26 05:07:54;;;;;;;16.97;12.97;;;;;;;;;;5134832;27;20474;-89
2021/06/26 05:10:21;;;;;;;17.87;15.03;;;15.50;99.90;;;;;;5134854;28;20463;-89
2021/06/26 05:12:48;;;;;;;19.80;16.03;;;;;;;;;;5131056;28;20487;-90
2021/06/26 05:15:16;;;;;;;18.40;15.47;;;16.20;99.90;;;;;;5134866;28;20439;-88
2021/06/26 05:17:57;;;;;;;19.30;16.40;;;15.90;99.90;;;;;;5133261;28;20438;-89
2021/06/26 05:20:26;;;;;;;24.03;16.90;;;;;;;;;;5132889;28;20960;-89
2021/06/26 05:22:59;;;;;;;20.07;15.73;;;;;;;;;;5134243;28;20443;-89
2021/06/26 05:25:26;;;;;;;20.47;17.00;;;;;;;;;;5134101;28;20474;-88
2021/06/26 05:28:06;;;;;;;21.67;17.80;;;;;;;;;;5132845;28;20449;-89
2021/06/26 05:30:36;;;;;;;21.30;16.30;;;;;;;;;;5134046;28;20929;-89
2021/06/26 05:33:04;;;;;;;20.37;16.73;;;;;;;;;;5133364;27;20867;-89
2021/06/26 05:35:31;;;;;;;19.63;17.10;;;;;;;;;;5130977;28;20499;-88
2021/06/26 05:38:04;;;;;;;20.00;17.50;;;17.30;99.90;;;;;;5134286;28;20434;-88
2021/06/26 05:40:32;;;;;;;21.63;16.37;;;17.80;99.90;;;;;;5131324;28;20518;-89
2021/06/26 05:42:58;;;;;;;18.50;16.10;;;18.00;99.90;;;;;;5132780;28;20861;-88
2021/06/26 05:45:26;;;;;;;17.33;15.10;;;;;;;;;;5133980;28;20470;-88
2021/06/26 05:47:56;;;;;;;16.73;14.93;;;18.80;99.90;;;;;;5135488;28;20439;-89
2021/06/26 05:50:23;;;;;;;15.67;14.00;;;19.10;99.90;;;;;;5134435;27;20439;-88
2021/06/26 05:52:54;;;;;;;19.87;15.47;;;18.40;99.90;;;;;;5133520;28;20479;-89
2021/06/26 05:55:25;;;;;;;17.90;15.80;;;18.50;99.90;;;;;;5133684;28;20816;-88
2021/06/26 05:57:55;;;;;;;19.00;15.70;;;18.20;99.90;;;;;;5130492;28;20439;-87
2021/06/26 06:00:28;;;;;;;17.87;15.97;;;18.30;99.90;;;;;;5134305;28;20446;-88
2021/06/26 06:02:55;;;;;;;17.40;15.53;;;;;;;;;;5131459;28;20996;-89
2021/06/26 06:05:22;;;;;;;16.50;14.90;;;;;;;;;;5133343;28;20439;-86
2021/06/26 06:07:49;;;;;;;19.93;14.80;;;;;;;;;;5128699;27;20467;-85
2021/06/26 06:10:19;;;;;;;16.77;15.10;;;18.70;99.90;;;;;;5133042;28;20929;-85
2021/06/26 06:12:47;;;;;;;18.20;15.73;;;19.20;99.90;;;;;;5131567;28;20923;-84
2021/06/26 06:15:14;;;;;;;15.17;13.60;;;19.50;99.90;;;;;;5133408;27;20457;-85
2021/06/26 06:17:42;;;;;;;19.10;16.90;;;19.30;99.90;;;;;;5136670;27;20579;-86
2021/06/26 06:20:10;;;;;;;17.57;15.77;;;19.10;99.90;;;;;;5136656;27;20942;-85
2021/06/26 06:22:38;;;;;;;18.23;16.30;;;19.20;99.90;;;;;;5136532;27;20781;-84
2021/06/26 06:25:09;;;;;;;18.10;16.37;;;19.20;99.90;;;;;;5137058;27;20438;-85
2021/06/26 06:27:40;;;;;;;18.77;16.90;;;19.50;99.90;;;;;;5133260;27;20455;-84
2021/06/26 06:30:13;;;;;;;22.17;14.60;;;19.80;99.90;;;;;;5136557;27;20443;-84
2021/06/26 06:32:44;;;;;;;17.73;13.97;;;19.20;99.90;;;;;;5136345;27;20513;-85
2021/06/26 06:35:11;;;;;;;16.13;14.57;;;19.00;99.90;;;;;;5137870;27;20534;-84
2021/06/26 06:37:41;;;;;;;15.80;14.30;;;19.60;99.90;;;;;;5141925;27;20439;-85
2021/06/26 06:40:12;;;;;;;16.47;14.97;;;20.00;99.90;;;;;;5144999;27;20443;-84
2021/06/26 06:42:40;;;;;;;17.33;15.53;;;20.20;99.90;;;;;;5137681;27;20428;-86
2021/06/26 06:45:16;;;;;;;17.30;15.20;;;20.20;99.90;;;;;;5138878;27;20811;-86
2021/06/26 06:47:44;;;;;;;15.83;14.30;;;19.80;99.90;;;;;;5136631;27;20439;-84
2021/06/26 06:50:12;;;;;;;18.97;17.00;;;19.70;99.90;;;;;;5136175;27;20435;-88
2021/06/26 06:52:39;;;;;;;16.17;14.60;;;;;;;;;;5135722;27;20483;-84
2021/06/26 06:55:10;;;;;;;17.23;15.33;;;19.90;99.90;;;;;;5137153;27;20434;-84
2021/06/26 06:57:37;;;;;;;18.33;14.80;;;;;;;;;;5135366;27;20921;-83
2021/06/26 07:00:09;;;;;;;16.87;15.37;;;21.20;99.90;;;;;;5136019;27;20438;-85
2021/06/26 07:02:38;;;;;;;18.87;15.80;;;21.40;99.90;;;;;;5136358;27;21009;-86
2021/06/26 07:05:08;;;;;;;15.50;14.10;;;22.00;99.90;;;;;;5136108;27;21282;-85
2021/06/26 07:07:37;;;;;;;18.80;16.70;;;;;;;;;;5136558;27;20981;-89
2021/06/26 07:10:07;;;;;;;16.73;14.90;;;22.50;99.90;;;;;;5137861;27;20534;-89
2021/06/26 07:12:36;;;;;;;16.77;15.13;;;;;;;;;;5135548;27;20490;-85
2021/06/26 07:15:03;;;;;;;16.87;15.30;;;;;;;;;;5136461;27;20435;-88
2021/06/26 07:17:30;;;;;;;17.73;16.10;;;22.40;99.90;;;;;;5116391;28;20489;-88
2021/06/26 07:19:57;;;;;;;15.80;14.40;;;;;;;;;;5116185;28;20935;-86
2021/06/26 07:22:25;;;;;;;15.57;13.83;;;21.80;99.90;;;;;;5118525;27;20904;-85
2021/06/26 07:24:52;;;;;;;16.00;14.50;;;;;;;;;;5134604;27;20450;-87
2021/06/26 07:27:19;;;;;;;15.00;13.70;;;;;;;;;;5136406;27;20447;-88
2021/06/26 07:29:46;;;;;;;14.40;13.20;;;20.70;99.90;;;;;;5137001;27;20454;-87
2021/06/26 07:32:13;;;;;;;16.10;12.90;;;;;;;;;;5136649;27;20490;-90
2021/06/26 07:34:40;;;;;;;15.50;14.10;;;20.90;99.90;;;;;;5136863;27;20431;-88
2021/06/26 07:37:07;;;;;;;15.10;13.50;;;21.20;99.90;;;;;;5136594;27;20435;-87
2021/06/26 07:39:38;;;;;;;17.40;14.60;;;20.80;99.90;;;;;;5138623;27;20442;-89
2021/06/26 07:42:10;;;;;;;14.17;12.80;;;20.60;99.90;;;;;;5132944;27;21020;-85
2021/06/26 07:44:39;;;;;;;14.13;12.80;;;;;;;;;;5135520;27;20446;-85
2021/06/26 07:47:06;;;;;;;13.10;11.90;;;21.30;99.90;;;;;;5135837;27;20439;-87
2021/06/26 07:49:33;;;;;;;13.70;12.43;;;21.40;99.90;;;;;;5136353;27;20807;-90
2021/06/26 07:52:00;;;;;;;13.90;12.53;;;;;;;;;;5136171;27;20964;-86
2021/06/26 07:54:26;;;;;;;14.70;12.90;;;21.00;99.90;;;;;;5136324;27;20453;-88
2021/06/26 07:56:54;;;;;;;14.53;13.03;;;20.70;99.90;;;;;;5134995;27;20443;-88
2021/06/26 07:59:21;;;;;;;14.67;13.20;;;20.60;99.90;;;;;;5136322;27;20446;-86
2021/06/26 08:01:48;;;;;;;14.90;13.50;;;;;;;;;;5136750;27;20457;-87
2021/06/26 08:04:15;;;;;;;15.20;13.67;;;20.40;99.90;;;;;;5135883;27;20469;-86
2021/06/26 08:06:42;;;;;;;15.93;14.33;;;;;;;;;;5136054;27;20446;-88
2021/06/26 08:09:10;;;;;;;13.30;12.07;;;;;;;;;;5135652;27;20483;-87
2021/06/26 08:11:37;;;;;;;13.90;12.60;;;;;;;;;;5134486;27;20736;-88
2021/06/26 08:14:05;;;;;;;14.63;13.23;;;20.40;99.90;;;;;;5135508;27;20491;-86
2021/06/26 08:16:32;;;;;;;12.67;11.47;;;21.10;99.90;;;;;;5135458;27;20445;-87
2021/06/26 08:18:59;;;;;;;13.30;11.90;;;21.50;99.90;;;;;;5135680;27;20463;-87
2021/06/26 08:21:26;;;;;;;12.27;11.17;;;21.80;99.90;;;;;;5135831;27;20530;-86
2021/06/26 08:23:53;;;;;;;12.70;11.40;;;21.70;99.90;;;;;;5135974;27;20458;-87
2021/06/26 08:26:20;;;;;;;12.50;11.40;;;;;;;;;;5135153;27;20450;-86
2021/06/26 08:28:47;;;;;;;11.47;10.47;;;23.20;99.90;;;;;;5139035;27;20451;-85
2021/06/26 08:31:15;;;;;;;12.37;11.27;;;24.00;99.90;;;;;;5138398;27;20447;-89
2021/06/26 08:33:42;;;;;;;12.17;10.97;;;;;;;;;;5119998;27;20611;-85
2021/06/26 08:36:09;;;;;;;11.27;10.30;;;22.90;99.90;;;;;;5139244;27;20443;-86
2021/06/26 08:38:38;;;;;;;11.90;10.90;;;;;;;;;;5138329;27;20541;-89
2021/06/26 08:41:06;;;;;;;11.70;10.70;;;23.10;99.90;;;;;;5136827;27;20479;-87
2021/06/26 08:43:34;;;;;;;12.43;10.80;;;;;;;;;;5135822;27;20449;-87
2021/06/26 08:46:01;;;;;;;11.70;10.60;;;23.50;99.90;;;;;;5136540;27;20430;-86
2021/06/26 08:48:30;;;;;;;13.47;12.13;;;23.20;99.90;;;;;;5136652;27;20530;-84
2021/06/26 08:50:57;;;;;;;12.10;10.83;;;;;;;;;;5135212;27;20443;-86
2021/06/26 08:53:24;;;;;;;11.70;10.60;;;;;;;;;;5134905;27;20493;-88
2021/06/26 08:55:52;;;;;;;10.80;9.80;;;;;;;;;;5134649;27;20538;-84
2021/06/26 08:58:20;;;;;;;12.17;11.17;;;23.00;99.90;;;;;;5134146;27;20450;-88
2021/06/26 09:00:48;;;;;;;11.77;10.77;;;23.10;99.90;;;;;;5134710;27;20503;-86
2021/06/26 09:03:16;;;;;;;11.73;10.37;;;23.50;99.90;;;;;;5136257;27;20442;-86
2021/06/26 09:05:48;;;;;;;13.07;10.63;;;22.60;99.90;;;;;;5144227;27;20439;-87
2021/06/26 09:08:16;;;;;;;9.87;9.07;;;22.80;99.90;;;;;;5135109;27;20988;-87
2021/06/26 09:10:44;;;;;;;10.83;9.93;;;22.40;99.90;;;;;;5135068;28;20458;-89
2021/06/26 09:13:13;;;;;;;11.97;10.97;;;21.90;99.90;;;;;;5133417;28;20505;-86
2021/06/26 09:15:41;;;;;;;10.93;10.00;;;;;;;;;;5134805;28;20475;-86
2021/06/26 09:18:13;;;;;;;11.63;10.67;;;22.30;99.90;;;;;;5134595;28;20467;-86
2021/06/26 09:20:42;;;;;;;11.03;10.13;;;;;;;;;;5135255;28;20445;-87
2021/06/26 09:23:30;;;;;;;10.63;9.73;;;22.70;99.90;;;;;;5134360;28;20826;-90
2021/06/26 09:26:07;;;;;;;10.40;8.80;;;23.50;99.90;;;;;;5134101;28;20455;-91
2021/06/26 09:28:35;;;;;;;10.30;9.40;;;;;;;;;;5133008;28;20458;-87
2021/06/26 09:31:03;;;;;;;9.53;8.73;;;;;;;;;;5133868;28;20476;-90
2021/06/26 09:33:30;;;;;;;10.27;9.37;;;22.50;99.90;;;;;;5133631;28;20497;-89
2021/06/26 09:36:03;;;;;;;10.87;9.87;;;22.20;99.90;;;;;;5133517;28;20462;-86
2021/06/26 09:38:32;;;;;;;9.00;8.20;;;22.70;99.90;;;;;;5134254;28;20461;-89
2021/06/26 09:41:00;;;;;;;10.13;9.23;;;22.80;99.90;;;;;;5133964;28;20500;-86
2021/06/26 09:43:29;;;;;;;9.30;8.50;;;22.90;99.90;;;;;;5129537;28;20446;-85
2021/06/26 09:46:13;;;;;;;16.30;10.17;;;22.50;99.90;;;;;;5133620;28;20447;-85
2021/06/26 09:48:54;;;;;;;12.37;9.93;;;23.00;99.90;;;;;;5133834;28;20479;-88
2021/06/26 09:51:23;;;;;;;11.10;8.40;;;23.70;99.90;;;;;;5135929;27;20472;-87
2021/06/26 09:53:57;;;;;;;8.73;8.03;;;23.80;99.90;;;;;;5137700;27;21013;-86
2021/06/26 09:56:24;;;;;;;9.27;8.40;;;;;;;;;;5136402;27;20876;-85
2021/06/26 09:58:52;;;;;;;9.43;8.07;;;22.70;99.90;;;;;;5137319;27;20789;-87
2021/06/26 10:01:20;;;;;;;9.77;8.87;;;23.60;99.90;;;;;;5135115;27;20439;-86
2021/06/26 10:03:48;;;;;;;9.23;8.30;;;23.70;99.90;;;;;;5137544;27;20801;-88
2021/06/26 10:06:17;;;;;;;8.30;7.50;;;24.70;99.90;;;;;;5134838;27;20446;-90
2021/06/26 10:08:44;;;;;;;7.57;6.97;;;;;;;;;;5137571;27;20467;-87
2021/06/26 10:11:12;;;;;;;8.20;7.47;;;24.30;99.90;;;;;;5137149;27;20457;-85
2021/06/26 10:13:41;;;;;;;10.40;8.00;;;23.10;99.90;;;;;;5136976;27;20789;-87
2021/06/26 10:16:07;;;;;;;7.13;6.53;;;23.70;99.90;;;;;;5137109;27;20443;-87
2021/06/26 10:18:35;;;;;;;8.50;7.70;;;;;;;;;;5137358;27;20443;-89
2021/06/26 10:21:03;;;;;;;7.47;6.87;;;24.60;99.90;;;;;;5137180;27;20449;-88
2021/06/26 10:23:32;;;;;;;9.00;7.50;;;24.20;99.90;;;;;;5137212;27;20447;-87
2021/06/26 10:26:00;;;;;;;8.10;7.50;;;23.80;99.90;;;;;;5134654;27;20443;-86
2021/06/26 10:28:29;;;;;;;7.90;7.30;;;23.70;99.90;;;;;;5135526;27;20447;-91
2021/06/26 10:31:01;;;;;;;7.50;7.00;;;23.40;99.90;;;;;;5137241;27;20451;-90
2021/06/26 10:33:29;;;;;;;8.00;7.17;;;23.20;99.90;;;;;;5137021;27;20488;-86
2021/06/26 10:35:58;;;;;;;8.40;7.70;;;23.80;99.90;;;;;;5137048;27;20443;-87
2021/06/26 10:38:25;;;;;;;8.17;7.40;;;;;;;;;;5137017;27;20466;-87
2021/06/26 10:40:54;;;;;;;7.80;7.20;;;25.00;99.90;;;;;;5137032;27;20446;-87
2021/06/26 10:43:25;;;;;;;8.00;7.40;;;24.20;99.90;;;;;;5135627;27;20447;-86
2021/06/26 10:46:06;;;;;;;7.17;6.53;;;24.00;99.90;;;;;;5136938;27;20446;-86
2021/06/26 10:48:33;;;;;;;7.57;6.97;;;24.60;99.90;;;;;;5136884;27;20446;-86
2021/06/26 10:51:00;;;;;;;7.07;6.47;;;;;;;;;;5136684;27;20956;-83
2021/06/26 10:53:30;;;;;;;6.50;5.90;;;24.30;99.40;;;;;;5136518;27;20490;-89
2021/06/26 10:56:03;;;;;;;6.50;6.00;;;25.30;99.90;;;;;;5136497;27;20453;-85
2021/06/26 10:58:32;;;;;;;6.83;6.33;;;24.80;97.90;;;;;;5135202;27;20458;-85
2021/06/26 11:01:11;;;;;;;7.27;6.57;;;25.50;99.90;;;;;;5136468;27;20942;-89
2021/06/26 11:03:38;;;;;;;8.73;6.47;;;;;;;;;;5136582;27;20460;-90
2021/06/26 11:06:18;;;;;;;7.63;7.13;;;26.10;99.90;;;;;;5134155;27;20434;-86
2021/06/26 11:09:01;;;;;;;7.70;7.00;;;25.70;97.30;;;;;;5136290;27;20535;-88
2021/06/26 11:11:33;;;;;;;6.43;5.93;;;24.80;99.90;;;;;;5134769;27;20450;-87
2021/06/26 11:14:12;;;;;;;6.80;6.30;;;24.70;99.90;;;;;;5136125;27;21024;-84
2021/06/26 11:16:46;;;;;;;7.20;6.60;;;24.50;98.10;;;;;;5136065;27;20463;-89
2021/06/26 11:19:13;;;;;;;7.23;6.53;;;;;;;;;;5135983;27;20891;-87
2021/06/26 11:21:45;;;;;;;6.70;6.20;;;24.70;99.90;;;;;;5136480;27;20439;-84
2021/06/26 11:24:12;;;;;;;7.30;6.60;;;;;;;;;;5135645;27;20447;-88
2021/06/26 11:26:51;;;;;;;8.10;7.40;;;24.10;99.90;;;;;;5134458;27;20439;-90
2021/06/26 11:29:33;;;;;;;7.30;6.70;;;24.50;99.90;;;;;;5135210;27;20447;-91
2021/06/26 11:32:06;;;;;;;7.27;6.60;;;26.50;99.60;;;;;;5132277;27;20522;-88
2021/06/26 11:34:33;;;;;;;7.50;6.90;;;24.30;99.90;;;;;;5135533;27;20505;-88
2021/06/26 11:37:03;;;;;;;6.53;6.03;;;24.10;99.90;;;;;;5135750;27;20451;-89
2021/06/26 11:39:32;;;;;;;8.53;6.53;;;24.20;99.90;;;;;;5135866;27;20812;-89
2021/06/26 11:41:59;;;;;;;6.30;5.80;;;;;;;;;;5135314;27;20918;-90
2021/06/26 11:44:34;;;;;;;5.67;5.23;;;25.20;97.60;;;;;;5135905;27;20496;-89
2021/06/26 11:47:03;;;;;;;9.67;6.37;;;26.00;97.10;;;;;;5135521;27;20442;-90
2021/06/26 11:49:38;;;;;;;6.40;5.80;;;25.90;99.90;;;;;;5133922;27;20439;-91
2021/06/26 11:52:09;;;;;;;6.97;6.47;;;25.20;96.90;;;;;;5133485;27;20462;-86
2021/06/26 11:54:36;;;;;;;6.33;5.83;;;;;;;;;;5135598;27;20490;-90
2021/06/26 11:57:05;;;;;;;5.87;5.43;;;;;;;;;;5134562;27;20849;-88
2021/06/26 11:59:40;;;;;;;6.47;5.87;;;24.10;99.90;;;;;;5135206;27;20494;-88
2021/06/26 12:02:08;;;;;;;6.30;4.90;;;24.10;97.80;;;;;;5135657;27;20438;-88
2021/06/26 12:04:37;;;;;;;6.73;6.20;;;;;;;;;;5135589;27;20446;-86
2021/06/26 12:07:05;;;;;;;6.20;5.60;;;24.60;99.80;;;;;;5135073;27;20528;-84
2021/06/26 12:09:32;;;;;;;6.10;5.60;;;;;;;;;;5093829;28;20444;-88
2021/06/26 12:12:00;;;;;;;5.13;4.73;;;;;;;;;;5093302;28;20445;-92
2021/06/26 12:14:28;;;;;;;6.10;5.60;;;24.40;97.30;;;;;;5093132;28;20496;-89
2021/06/26 12:17:03;;;;;;;7.13;5.17;;;24.20;99.90;;;;;;5094117;28;20473;-88
2021/06/26 12:19:32;;;;;;;8.23;5.67;;;24.70;99.90;;;;;;5094757;28;20466;-86
2021/06/26 12:22:00;;;;;;;6.83;6.33;;;24.30;97.20;;;;;;5093862;28;20936;-86
2021/06/26 12:24:32;;;;;;;6.50;6.00;;;24.50;99.90;;;;;;5094615;28;20928;-90
2021/06/26 12:27:10;;;;;;;6.53;6.00;;;25.10;99.90;;;;;;5094110;28;20445;-87
2021/06/26 12:29:37;;;;;;;5.90;5.50;;;;;;;;;;5094406;28;20472;-88
2021/06/26 12:32:07;;;;;;;5.57;5.17;;;25.10;95.90;;;;;;5094814;28;20441;-89
2021/06/26 12:34:45;;;;;;;6.10;5.60;;;25.60;95.50;;;;;;5094395;28;20497;-87
2021/06/26 12:37:12;;;;;;;7.20;6.60;;;;;;;;;;5094480;28;20506;-89
2021/06/26 12:39:39;;;;;;;6.20;5.60;;;;;;;;;;5096062;28;20455;-86
2021/06/26 12:42:09;;;;;;;5.40;5.00;;;24.60;98.20;;;;;;5096518;28;20458;-89
2021/06/26 12:44:37;;;;;;;5.80;5.20;;;;;;;;;;5098049;28;20453;-92
2021/06/26 12:47:04;;;;;;;6.13;5.63;;;;;;;;;;5099497;28;20445;-93
2021/06/26 12:49:36;;;;;;;5.80;5.20;;;;;;;;;;5102255;28;20441;-89
2021/06/26 12:52:15;;;;;;;6.30;5.70;;;26.00;99.90;;;;;;5096265;28;20448;-89
2021/06/26 12:54:49;;;;;;;7.10;4.57;;;;;;;;;;5095297;28;21029;-93
2021/06/26 12:57:16;;;;;;;4.67;4.27;;;;;;;;;;5093130;28;20449;-88
2021/06/26 12:59:43;;;;;;;4.87;4.47;;;;;;;;;;5099412;28;20449;-90
2021/06/26 13:02:11;;;;;;;4.90;3.80;;;;;;;;;;5095826;28;20445;-90
2021/06/26 13:04:39;;;;;;;4.93;4.53;;;27.10;91.50;;;;;;5095281;28;21203;-92
2021/06/26 13:07:07;;;;;;;4.40;4.10;;;;;;;;;;5096098;27;20444;-91
2021/06/26 13:09:36;;;;;;;4.83;4.43;;;27.10;99.90;;;;;;5135735;27;20475;-92
2021/06/26 13:12:11;;;;;;;5.13;4.73;;;27.60;99.90;;;;;;5133660;27;20443;-94
2021/06/26 13:14:39;;;;;;;6.10;5.20;;;27.20;92.10;;;;;;5098638;28;20556;-90
2021/06/26 13:17:07;;;;;;;5.47;5.07;;;26.40;92.20;;;;;;5134595;28;20453;-88
2021/06/26 13:19:34;;;;;;;5.17;4.77;;;26.20;99.90;;;;;;5134865;28;20446;-88
2021/06/26 13:22:01;;;;;;;5.40;5.00;;;;;;;;;;5143174;28;20426;-89
2021/06/26 13:24:28;;;;;;;5.13;4.73;;;;;;;;;;5149963;27;20810;-88